Terminal Aerodrome Forecast
Issued by NWS Wichita, KS

Home | Current Version | Previous Version | Graphics & Text | Print | Product List | Glossary On
Versions: 1 2 3 4 5 6 7 8 9 10 11 12 13 14 15 16 17 18
000
FTUS43 KICT 141140
TAFICT
TAF
KICT 141140Z 1412/1512 17005KT P6SM SCT025 OVC050
      TEMPO 1412/1413 6SM -SN BKN025
     FM141300 16007KT P6SM OVC050
     FM141700 VRB03KT P6SM SCT035
     FM142100 28007KT P6SM OVC250=

USA.gov is the U.S. government's official web portal to all federal, state and local government web resources and services.